createdAt,value
2022-12-23T06:37:29.871Z,0.82
2022-12-23T06:42:34.543Z,1.21
2022-12-23T06:47:37.549Z,1.05
2022-12-23T06:52:39.755Z,1.51
2022-12-23T06:57:41.858Z,1.40
2022-12-23T07:02:44.248Z,1.86
2022-12-23T07:07:46.732Z,2.12
2022-12-23T07:12:50.876Z,1.95
2022-12-23T07:17:54.836Z,2.27
2022-12-23T07:22:57.625Z,2.44
2022-12-23T07:27:59.845Z,2.76
2022-12-23T07:33:02.160Z,3.73
2022-12-23T07:38:04.451Z,4.76
2022-12-23T07:43:06.837Z,6.32
2022-12-23T07:48:09.039Z,6.20
2022-12-23T07:53:11.278Z,6.95
2022-12-23T07:58:13.856Z,7.47
2022-12-23T08:03:16.080Z,7.84
2022-12-23T08:08:18.273Z,7.74
2022-12-23T08:13:20.770Z,9.54
2022-12-23T08:18:22.956Z,9.92
2022-12-23T08:23:26.749Z,9.62
2022-12-23T08:28:29.798Z,12.17
2022-12-23T08:33:32.526Z,12.30
2022-12-23T08:38:35.870Z,11.33
2022-12-23T08:43:38.705Z,9.45
2022-12-23T08:48:46.968Z,10.52
2022-12-23T08:53:59.654Z,10.28
2022-12-23T08:59:02.732Z,11.33
2022-12-23T09:04:06.532Z,13.61
2022-12-23T09:09:11.479Z,14.74
2022-12-23T09:14:13.767Z,15.53
2022-12-23T09:19:16.015Z,15.89
2022-12-23T09:24:18.167Z,15.11
2022-12-23T09:29:20.526Z,16.18
2022-12-23T09:34:22.801Z,16.48
2022-12-23T09:39:24.957Z,16.68
2022-12-23T09:44:51.497Z,18.23
2022-12-23T09:50:10.649Z,19.27
2022-12-23T09:55:14.508Z,20.04
2022-12-23T10:00:21.902Z,20.52
2022-12-23T10:05:44.132Z,20.77
2022-12-23T10:10:49.005Z,19.53
2022-12-23T10:15:55.269Z,18.91
2022-12-23T10:21:06.382Z,19.86
2022-12-23T10:26:24.371Z,19.56
2022-12-23T10:31:41.306Z,17.70
2022-12-23T10:37:00.500Z,17.16
2022-12-23T10:42:11.757Z,16.23
2022-12-23T10:47:24.789Z,15.04
2022-12-23T10:52:34.368Z,14.18
2022-12-23T10:57:36.945Z,13.13
2022-12-23T11:02:44.992Z,12.87
2022-12-23T11:07:47.569Z,12.77
2022-12-23T11:12:53.062Z,12.66
2022-12-23T11:18:24.923Z,12.70
2022-12-23T11:23:30.585Z,12.90
2022-12-23T11:28:35.937Z,13.00
2022-12-23T11:33:42.062Z,12.61
2022-12-23T11:39:04.861Z,12.51
2022-12-23T11:44:16.307Z,12.38
2022-12-23T11:49:31.887Z,12.58
2022-12-23T11:54:34.616Z,12.51
2022-12-23T11:59:46.444Z,12.74
2022-12-23T12:05:00.261Z,13.10
2022-12-23T12:10:03.460Z,13.02
2022-12-23T12:15:07.276Z,12.80
2022-12-23T12:20:44.548Z,12.89
2022-12-23T12:25:51.996Z,12.79
2022-12-23T12:31:04.985Z,12.73
2022-12-23T12:36:12.840Z,12.43
2022-12-23T12:42:07.385Z,12.10
2022-12-23T12:47:52.244Z,11.86
2022-12-23T12:52:41.622Z,11.85
2022-12-23T12:57:44.259Z,11.85
2022-12-23T13:03:23.836Z,11.97
2022-12-23T13:08:26.117Z,11.92
2022-12-23T13:13:52.717Z,11.46
2022-12-23T13:19:00.958Z,11.27
2022-12-23T13:24:31.681Z,10.91
2022-12-23T13:29:53.099Z,10.98
2022-12-23T13:35:24.823Z,10.60
2022-12-23T13:41:22.287Z,10.65
2022-12-23T13:46:49.923Z,10.74
2022-12-23T13:52:03.367Z,10.87
2022-12-23T13:57:25.379Z,11.00
2022-12-23T14:02:36.551Z,10.90
2022-12-23T14:07:38.877Z,10.99
2022-12-23T14:12:43.289Z,10.87
2022-12-23T14:18:16.036Z,10.95
2022-12-23T14:23:46.293Z,10.76
2022-12-23T14:29:30.423Z,10.54
2022-12-23T14:34:34.419Z,10.37
2022-12-23T14:39:36.830Z,10.18
2022-12-23T14:44:38.824Z,9.98
2022-12-23T14:49:44.721Z,9.83
2022-12-23T14:55:06.393Z,9.49
2022-12-23T15:00:10.650Z,9.55
2022-12-23T15:05:13.320Z,9.51
2022-12-23T15:10:25.888Z,9.38
2022-12-23T15:15:30.072Z,9.51
2022-12-23T15:20:33.325Z,9.65
2022-12-23T15:25:49.169Z,9.58
2022-12-23T15:30:56.640Z,9.57
2022-12-23T15:36:02.406Z,9.50
2022-12-23T15:41:16.323Z,9.57
2022-12-23T15:46:29.719Z,9.46
2022-12-23T15:57:03.323Z,9.24
2022-12-23T16:02:58.230Z,9.18
2022-12-23T16:08:16.422Z,9.18
2022-12-23T16:13:20.843Z,9.15
2022-12-23T16:18:32.948Z,8.64
2022-12-23T16:23:37.510Z,8.74
2022-12-23T16:28:44.033Z,8.50
2022-12-23T16:33:51.810Z,8.55
2022-12-23T16:39:06.649Z,8.61
2022-12-23T16:44:09.159Z,8.45
2022-12-23T16:49:20.179Z,8.41
2022-12-23T16:54:22.547Z,8.30
2022-12-23T16:59:26.139Z,8.15
2022-12-23T17:04:28.277Z,8.03
2022-12-23T17:09:30.435Z,8.00
2022-12-23T17:14:33.008Z,7.79
2022-12-23T17:19:35.072Z,7.84
2022-12-23T17:24:37.167Z,7.62
2022-12-23T17:29:39.438Z,7.38
2022-12-23T17:34:42.705Z,7.54
2022-12-23T17:39:45.950Z,7.26
2022-12-23T17:44:48.534Z,6.88
2022-12-23T17:49:51.608Z,6.80
2022-12-23T17:54:53.780Z,6.55
2022-12-23T17:59:57.126Z,6.35
2022-12-23T18:05:00.244Z,5.97
2022-12-23T18:10:02.520Z,5.82
2022-12-23T18:15:06.839Z,5.46
2022-12-23T18:20:15.540Z,5.27
2022-12-23T18:25:21.442Z,5.28
2022-12-23T18:30:23.714Z,5.34
2022-12-23T18:35:39.754Z,5.14
2022-12-23T18:40:43.250Z,5.23
2022-12-23T18:45:52.454Z,5.07
2022-12-23T18:50:55.713Z,5.10
2022-12-23T18:55:57.931Z,5.01
2022-12-23T19:01:00.029Z,5.10
2022-12-23T19:06:06.870Z,5.15
2022-12-23T19:11:15.165Z,4.80
2022-12-23T19:16:21.941Z,4.89
2022-12-23T19:21:24.361Z,5.13
2022-12-23T19:26:26.506Z,5.05
2022-12-23T19:31:30.068Z,5.22
2022-12-23T19:36:32.360Z,5.35
2022-12-23T19:41:34.628Z,5.45
2022-12-23T19:46:36.979Z,5.49
2022-12-23T19:51:39.111Z,5.44
2022-12-23T19:56:41.528Z,5.47
2022-12-23T20:01:45.785Z,5.56
2022-12-23T20:06:48.321Z,5.59
2022-12-23T20:11:53.272Z,5.64
2022-12-23T20:16:55.490Z,5.75
2022-12-23T20:21:57.747Z,5.75
2022-12-23T20:27:00.032Z,5.79
2022-12-23T20:32:02.166Z,5.43
2022-12-23T20:37:04.884Z,5.25
2022-12-23T20:42:06.977Z,5.27
2022-12-23T20:47:09.085Z,5.16
2022-12-23T20:52:11.299Z,4.90
2022-12-23T20:57:13.546Z,4.74
2022-12-23T21:02:16.979Z,4.82
2022-12-23T21:07:19.160Z,4.75
2022-12-23T21:12:21.375Z,4.43
2022-12-23T21:17:24.031Z,4.50
2022-12-23T21:22:26.815Z,4.53
2022-12-23T21:27:29.023Z,4.51
2022-12-23T21:32:31.905Z,4.22
2022-12-23T21:37:34.139Z,4.27
2022-12-23T21:42:36.413Z,4.23
2022-12-23T21:47:39.409Z,4.10
2022-12-23T21:52:41.472Z,3.89
2022-12-23T21:57:44.747Z,3.83
2022-12-23T22:02:47.069Z,3.43
2022-12-23T22:07:49.281Z,3.10
2022-12-23T22:12:51.324Z,3.20
2022-12-23T22:17:53.562Z,2.91
2022-12-23T22:22:56.143Z,2.76
2022-12-23T22:27:58.293Z,2.71
2022-12-23T22:33:00.352Z,2.69
2022-12-23T22:38:02.549Z,2.63
2022-12-23T22:43:04.823Z,2.51
2022-12-23T22:48:07.128Z,2.08
2022-12-23T22:53:13.701Z,2.05
2022-12-23T22:58:15.940Z,1.95
2022-12-23T23:03:18.134Z,2.02
2022-12-23T23:08:20.287Z,2.07
2022-12-23T23:13:22.620Z,1.62
2022-12-23T23:18:26.465Z,1.75
2022-12-23T23:23:28.640Z,1.70
2022-12-23T23:28:31.267Z,1.61
2022-12-23T23:33:33.359Z,1.56
2022-12-23T23:38:35.629Z,1.60
2022-12-23T23:43:37.718Z,1.65
2022-12-23T23:48:39.790Z,1.48
2022-12-23T23:53:41.871Z,1.51
2022-12-23T23:58:44.152Z,1.32
